createdAt,value
2023-02-17T00:01:31.965Z,96.72
2023-02-17T00:04:00.459Z,96.36
2023-02-17T00:06:29.903Z,96.64
2023-02-17T00:08:58.430Z,97.41
2023-02-17T00:11:25.532Z,96.13
2023-02-17T00:13:55.253Z,95.54
2023-02-17T00:16:26.899Z,95.19
2023-02-17T00:19:00.908Z,94.82
2023-02-17T00:21:30.307Z,95.59
2023-02-17T00:24:00.929Z,98.38
2023-02-17T00:26:30.116Z,97.32
2023-02-17T00:28:59.468Z,97.10
2023-02-17T00:31:26.888Z,96.33
2023-02-17T00:33:57.928Z,96.99
2023-02-17T00:36:28.859Z,98.14
2023-02-17T00:39:00.016Z,97.70
2023-02-17T00:41:29.294Z,98.16
2023-02-17T00:44:00.172Z,98.23
2023-02-17T00:46:28.736Z,98.55
2023-02-17T00:48:56.581Z,99.14
2023-02-17T00:51:24.773Z,99.53
2023-02-17T00:53:52.460Z,99.36
2023-02-17T00:56:19.684Z,100.00
2023-02-17T00:58:47.129Z,100.00
2023-02-17T01:01:15.458Z,100.00
2023-02-17T01:03:43.720Z,100.00
2023-02-17T01:06:21.545Z,100.00
2023-02-17T01:08:48.852Z,100.00
2023-02-17T01:11:21.102Z,100.00
2023-02-17T01:13:48.686Z,100.00
2023-02-17T01:16:21.893Z,100.00
2023-02-17T01:18:49.661Z,100.00
2023-02-17T01:21:24.817Z,100.00
2023-02-17T01:23:54.667Z,100.00
2023-02-17T01:26:24.596Z,100.00
2023-02-17T01:28:52.981Z,100.00
2023-02-17T01:31:21.984Z,100.00
2023-02-17T01:33:49.983Z,100.00
2023-02-17T01:36:19.244Z,100.00
2023-02-17T01:38:47.075Z,100.00
2023-02-17T01:41:17.403Z,100.00
2023-02-17T01:44:05.055Z,100.00
2023-02-17T01:46:34.394Z,100.00
2023-02-17T01:49:05.533Z,100.00
2023-02-17T01:51:37.723Z,100.00
2023-02-17T01:54:16.402Z,100.00
2023-02-17T01:56:47.969Z,100.00
2023-02-17T01:59:21.939Z,100.00
2023-02-17T02:01:55.703Z,100.00
2023-02-17T02:04:26.560Z,100.00
2023-02-17T02:06:54.250Z,100.00
2023-02-17T02:09:39.630Z,100.00
2023-02-17T02:12:25.242Z,100.00
2023-02-17T02:14:58.010Z,100.00
2023-02-17T02:17:25.140Z,100.00
2023-02-17T02:19:58.864Z,100.00
2023-02-17T02:22:35.059Z,100.00
2023-02-17T02:25:20.955Z,100.00
2023-02-17T02:28:10.088Z,100.00
2023-02-17T02:30:38.096Z,100.00
2023-02-17T02:33:21.092Z,100.00
2023-02-17T02:35:59.580Z,100.00
2023-02-17T02:38:46.435Z,100.00
2023-02-17T02:41:21.015Z,100.00
2023-02-17T02:43:51.147Z,100.00
2023-02-17T02:46:19.592Z,100.00
2023-02-17T02:48:49.376Z,100.00
2023-02-17T02:51:26.029Z,100.00
2023-02-17T02:54:17.062Z,100.00
2023-02-17T02:57:12.939Z,100.00
2023-02-17T02:59:58.601Z,100.00
2023-02-17T03:02:46.067Z,100.00
2023-02-17T03:05:39.758Z,100.00
2023-02-17T03:08:12.923Z,99.83
2023-02-17T03:10:54.849Z,99.36
2023-02-17T03:13:23.375Z,99.46
2023-02-17T03:15:52.924Z,99.06
2023-02-17T03:18:20.610Z,99.07
2023-02-17T03:21:05.696Z,99.21
2023-02-17T03:23:33.717Z,99.05
2023-02-17T03:26:01.883Z,98.92
2023-02-17T03:28:31.136Z,98.68
2023-02-17T03:30:59.250Z,98.37
2023-02-17T03:33:27.817Z,98.21
2023-02-17T03:35:55.198Z,98.23
2023-02-17T03:38:23.424Z,97.63
2023-02-17T03:40:51.264Z,97.77
2023-02-17T03:43:20.614Z,97.49
2023-02-17T03:45:48.440Z,97.72
2023-02-17T03:48:16.180Z,97.28
2023-02-17T03:50:44.022Z,96.85
2023-02-17T03:53:12.828Z,96.83
2023-02-17T03:55:40.470Z,97.26
2023-02-17T03:58:09.256Z,97.18
2023-02-17T04:00:36.791Z,97.03
2023-02-17T04:03:04.083Z,97.01
2023-02-17T04:05:31.364Z,96.53
2023-02-17T04:07:58.695Z,96.21
2023-02-17T04:10:26.906Z,96.10
2023-02-17T04:12:56.080Z,96.02
2023-02-17T04:15:23.249Z,96.13
2023-02-17T04:17:51.122Z,95.80
2023-02-17T04:20:18.683Z,95.80
2023-02-17T04:22:47.516Z,95.87
2023-02-17T04:25:15.075Z,95.58
2023-02-17T04:27:42.821Z,95.40
2023-02-17T04:30:12.422Z,95.53
2023-02-17T04:32:41.774Z,95.10
2023-02-17T04:35:09.515Z,95.08
2023-02-17T04:37:38.162Z,95.55
2023-02-17T04:40:10.913Z,95.04
2023-02-17T04:42:41.644Z,95.30
2023-02-17T04:45:10.556Z,95.21
2023-02-17T04:47:38.639Z,95.28
2023-02-17T04:50:08.981Z,95.84
2023-02-17T04:52:37.127Z,95.67
2023-02-17T04:55:08.041Z,95.71
2023-02-17T04:57:36.375Z,95.52
2023-02-17T05:00:07.643Z,95.22
2023-02-17T05:02:36.034Z,95.56
2023-02-17T05:05:05.936Z,95.25
2023-02-17T05:07:33.770Z,95.87
2023-02-17T05:10:01.407Z,95.67
2023-02-17T05:12:31.517Z,95.26
2023-02-17T05:14:59.704Z,94.99
2023-02-17T05:17:27.473Z,94.87
2023-02-17T05:19:55.810Z,95.03
2023-02-17T05:22:23.364Z,95.27
2023-02-17T05:24:51.333Z,95.37
2023-02-17T05:27:19.847Z,96.07
2023-02-17T05:29:50.496Z,95.76
2023-02-17T05:32:22.624Z,95.47
2023-02-17T05:34:50.180Z,95.49
2023-02-17T05:37:17.501Z,95.81
2023-02-17T05:39:45.031Z,96.07
2023-02-17T05:42:13.637Z,96.02
2023-02-17T05:44:40.939Z,96.08
2023-02-17T05:47:09.848Z,95.53
2023-02-17T05:49:37.547Z,95.51
2023-02-17T05:52:05.278Z,95.65
2023-02-17T05:54:32.992Z,95.14
2023-02-17T05:57:00.972Z,94.98
2023-02-17T05:59:28.755Z,95.06
2023-02-17T06:01:58.200Z,95.19
2023-02-17T06:04:25.738Z,94.60
2023-02-17T06:06:54.161Z,94.32
2023-02-17T06:09:22.560Z,94.16
2023-02-17T06:11:50.844Z,94.46
2023-02-17T06:14:20.567Z,94.41
2023-02-17T06:16:48.305Z,93.79
2023-02-17T06:19:16.227Z,94.02
2023-02-17T06:21:43.916Z,94.18
2023-02-17T06:24:12.505Z,94.24
2023-02-17T06:26:40.024Z,94.07
2023-02-17T06:29:07.693Z,94.42
2023-02-17T06:31:35.589Z,94.24
2023-02-17T06:34:06.188Z,94.74
2023-02-17T06:36:34.682Z,94.39
2023-02-17T06:39:03.553Z,93.95
2023-02-17T06:41:32.508Z,93.70
2023-02-17T06:44:00.846Z,93.45
2023-02-17T06:46:29.056Z,93.48
2023-02-17T06:48:58.115Z,92.92
2023-02-17T06:51:26.362Z,92.32
2023-02-17T06:53:55.768Z,92.21
2023-02-17T06:56:23.758Z,92.07
2023-02-17T06:58:52.017Z,91.46
2023-02-17T07:01:24.944Z,91.69
2023-02-17T07:03:57.869Z,91.83
2023-02-17T07:06:27.230Z,91.06
2023-02-17T07:08:55.751Z,91.29
2023-02-17T07:11:23.904Z,90.81
2023-02-17T07:13:51.909Z,90.77
2023-02-17T07:16:19.792Z,90.50
2023-02-17T07:18:47.650Z,90.24
2023-02-17T07:21:16.206Z,89.65
2023-02-17T07:23:44.296Z,89.68
2023-02-17T07:26:12.819Z,89.37
2023-02-17T07:28:42.438Z,88.98
2023-02-17T07:31:12.707Z,88.97
2023-02-17T07:33:41.603Z,88.71
2023-02-17T07:36:14.990Z,88.54
2023-02-17T07:38:44.310Z,88.59
2023-02-17T07:41:17.755Z,88.85
2023-02-17T07:43:47.455Z,88.38
2023-02-17T07:46:18.412Z,87.98
2023-02-17T07:48:46.868Z,88.15
2023-02-17T07:51:21.922Z,87.64
2023-02-17T07:53:51.900Z,87.51
2023-02-17T07:56:22.538Z,87.08
2023-02-17T07:58:55.057Z,87.12
2023-02-17T08:01:24.318Z,86.62
2023-02-17T08:03:55.711Z,86.50
2023-02-17T08:06:29.261Z,86.93
2023-02-17T08:09:16.886Z,86.25
2023-02-17T08:12:04.927Z,85.91
2023-02-17T08:14:36.076Z,85.09
2023-02-17T08:17:04.905Z,83.36
2023-02-17T08:19:46.919Z,83.29
2023-02-17T08:22:18.269Z,83.13
2023-02-17T08:24:47.054Z,82.91
2023-02-17T08:27:17.629Z,82.81
2023-02-17T08:29:46.994Z,82.68
2023-02-17T08:32:16.242Z,82.72
2023-02-17T08:34:44.376Z,82.62
2023-02-17T08:37:12.670Z,82.97
2023-02-17T08:39:41.781Z,83.18
2023-02-17T08:42:12.009Z,83.28
2023-02-17T08:44:43.064Z,83.12
2023-02-17T08:47:12.014Z,83.27
2023-02-17T08:49:41.889Z,83.11
2023-02-17T08:52:12.471Z,83.52
2023-02-17T08:54:40.646Z,83.90
2023-02-17T08:57:09.341Z,83.41
2023-02-17T08:59:39.020Z,83.84
2023-02-17T09:02:06.796Z,83.77
2023-02-17T09:04:34.853Z,84.01
2023-02-17T09:07:04.966Z,83.89
2023-02-17T09:09:35.831Z,83.97
2023-02-17T09:12:05.038Z,83.48
2023-02-17T09:14:33.640Z,83.75
2023-02-17T09:17:02.924Z,82.94
2023-02-17T09:19:30.524Z,83.13
2023-02-17T09:21:58.864Z,83.41
2023-02-17T09:24:26.947Z,82.70
2023-02-17T09:26:54.373Z,82.67
2023-02-17T09:29:23.482Z,81.44
2023-02-17T09:31:51.827Z,81.25
2023-02-17T09:34:19.992Z,80.40
2023-02-17T09:36:48.014Z,79.73
2023-02-17T09:39:17.226Z,80.21
2023-02-17T09:41:50.291Z,79.20
2023-02-17T09:44:32.712Z,79.22
2023-02-17T09:47:11.804Z,79.21
2023-02-17T09:49:45.239Z,79.40
2023-02-17T09:52:15.743Z,79.97
2023-02-17T09:54:58.441Z,80.35
2023-02-17T09:57:31.789Z,80.03
2023-02-17T10:00:16.077Z,79.93
2023-02-17T10:03:18.185Z,79.91
2023-02-17T10:06:14.267Z,79.60
2023-02-17T10:09:23.767Z,79.00
2023-02-17T10:12:11.680Z,78.87
2023-02-17T10:14:58.133Z,78.99
2023-02-17T10:17:38.291Z,78.89
2023-02-17T10:20:10.396Z,78.79
2023-02-17T10:22:39.552Z,78.98
2023-02-17T10:25:26.653Z,78.54
2023-02-17T10:28:11.082Z,78.48
2023-02-17T10:31:02.656Z,78.54
2023-02-17T10:33:39.538Z,78.96
2023-02-17T10:36:31.391Z,78.61
2023-02-17T10:39:06.184Z,78.70
2023-02-17T10:41:37.959Z,78.53
2023-02-17T10:44:18.173Z,78.25
2023-02-17T10:46:48.984Z,78.64
2023-02-17T10:49:29.568Z,78.63
2023-02-17T10:52:22.522Z,78.57
2023-02-17T10:55:01.105Z,78.37
2023-02-17T10:57:39.036Z,78.14
2023-02-17T11:00:10.218Z,78.26
2023-02-17T11:02:44.690Z,78.22
2023-02-17T11:05:28.301Z,78.57
2023-02-17T11:08:26.168Z,78.94
2023-02-17T11:11:17.012Z,79.04
2023-02-17T11:14:03.942Z,79.75
2023-02-17T11:16:38.646Z,79.68
2023-02-17T11:19:19.062Z,79.94
2023-02-17T11:21:48.512Z,79.86
2023-02-17T11:24:18.081Z,80.29
2023-02-17T11:26:58.081Z,79.73
2023-02-17T11:29:26.341Z,79.95
2023-02-17T11:32:15.740Z,79.95
2023-02-17T11:34:45.237Z,78.17
2023-02-17T11:37:12.805Z,78.07
2023-02-17T11:39:49.600Z,76.91
2023-02-17T11:42:38.313Z,75.73
2023-02-17T11:45:22.958Z,75.81
2023-02-17T11:48:17.198Z,75.51
2023-02-17T11:51:00.617Z,75.23
2023-02-17T11:53:52.511Z,75.26
2023-02-17T11:56:44.136Z,75.35
2023-02-17T11:59:24.043Z,74.43
2023-02-17T12:02:14.449Z,73.34
2023-02-17T12:05:04.248Z,72.71
2023-02-17T12:07:47.565Z,72.68
2023-02-17T12:10:14.969Z,72.75
2023-02-17T12:12:57.380Z,73.75
2023-02-17T12:15:33.745Z,73.47
2023-02-17T12:18:12.004Z,73.12
2023-02-17T12:21:08.541Z,73.58
2023-02-17T12:23:42.192Z,73.93
2023-02-17T12:26:29.872Z,74.86
2023-02-17T12:29:06.869Z,75.30
2023-02-17T12:31:55.167Z,74.95
2023-02-17T12:34:37.471Z,74.22
2023-02-17T12:37:11.767Z,72.73
2023-02-17T12:39:46.813Z,72.83
2023-02-17T12:42:24.494Z,72.49
2023-02-17T12:44:57.824Z,72.82
2023-02-17T12:47:44.606Z,73.46
2023-02-17T12:50:21.782Z,73.12
2023-02-17T12:52:56.008Z,73.12
2023-02-17T12:55:30.972Z,71.50
2023-02-17T12:58:13.015Z,72.88
2023-02-17T13:00:53.016Z,72.10
2023-02-17T13:03:23.160Z,71.48
2023-02-17T13:06:07.313Z,71.38
2023-02-17T13:09:04.554Z,71.87
2023-02-17T13:11:35.870Z,71.97
2023-02-17T13:14:45.522Z,72.36
2023-02-17T13:17:34.654Z,72.17
2023-02-17T13:20:14.933Z,71.02
2023-02-17T13:22:46.348Z,70.41
2023-02-17T13:25:39.119Z,70.19
2023-02-17T13:28:35.735Z,70.06
2023-02-17T13:31:20.891Z,70.53
2023-02-17T13:33:59.327Z,70.91
2023-02-17T13:36:30.653Z,71.04
2023-02-17T13:39:03.974Z,71.05
2023-02-17T13:41:50.749Z,71.38
2023-02-17T13:44:33.834Z,71.48
2023-02-17T13:47:07.547Z,71.44
2023-02-17T13:49:37.465Z,71.68
2023-02-17T13:52:23.236Z,71.99
2023-02-17T13:55:06.291Z,71.86
2023-02-17T13:57:40.461Z,71.92
2023-02-17T14:00:24.160Z,72.18
2023-02-17T14:02:58.377Z,72.04
2023-02-17T14:05:38.040Z,71.93
2023-02-17T14:08:38.465Z,72.17
2023-02-17T14:11:09.549Z,72.49
2023-02-17T14:13:40.417Z,72.19
2023-02-17T14:16:09.638Z,72.12
2023-02-17T14:18:42.538Z,71.73
2023-02-17T14:21:12.678Z,71.98
2023-02-17T14:23:45.486Z,71.89
2023-02-17T14:26:22.738Z,71.40
2023-02-17T14:28:59.198Z,71.19
2023-02-17T14:31:29.542Z,71.29
2023-02-17T14:34:02.290Z,71.41
2023-02-17T14:36:42.234Z,71.32
2023-02-17T14:39:15.776Z,72.22
2023-02-17T14:41:43.979Z,72.10
2023-02-17T14:44:11.514Z,72.47
2023-02-17T14:46:40.178Z,72.60
2023-02-17T14:49:08.250Z,73.32
2023-02-17T14:51:38.828Z,73.73
2023-02-17T14:54:17.843Z,73.86
2023-02-17T14:57:06.373Z,73.77
2023-02-17T14:59:34.933Z,74.49
2023-02-17T15:02:02.873Z,74.91
2023-02-17T15:04:30.327Z,74.66
2023-02-17T15:06:58.094Z,75.80
2023-02-17T15:09:31.730Z,76.29
2023-02-17T15:11:59.930Z,76.57
2023-02-17T15:14:27.928Z,78.12
2023-02-17T15:16:55.496Z,78.58
2023-02-17T15:19:25.436Z,78.61
2023-02-17T15:21:54.426Z,78.97
2023-02-17T15:24:30.613Z,79.32
2023-02-17T15:27:00.472Z,80.46
2023-02-17T15:29:28.562Z,81.06
2023-02-17T15:31:58.347Z,80.85
2023-02-17T15:34:33.415Z,81.97
2023-02-17T15:37:01.514Z,83.07
2023-02-17T15:39:29.382Z,83.77
2023-02-17T15:42:03.693Z,84.33
2023-02-17T15:44:41.023Z,85.08
2023-02-17T15:47:15.005Z,84.71
2023-02-17T15:49:42.161Z,84.97
2023-02-17T15:52:14.089Z,85.52
2023-02-17T15:54:42.894Z,86.22
2023-02-17T15:57:22.995Z,87.08
2023-02-17T15:59:51.024Z,88.39
2023-02-17T16:02:24.187Z,89.88
2023-02-17T16:04:51.415Z,90.06
2023-02-17T16:07:18.893Z,90.97
2023-02-17T16:09:46.030Z,90.30
2023-02-17T16:12:19.176Z,90.63
2023-02-17T16:14:46.791Z,90.88
2023-02-17T16:17:16.996Z,91.88
2023-02-17T16:19:44.414Z,92.16
2023-02-17T16:22:11.775Z,92.22
2023-02-17T16:24:39.267Z,92.77
2023-02-17T16:27:11.082Z,93.75
2023-02-17T16:29:38.227Z,93.32
2023-02-17T16:32:05.328Z,93.46
2023-02-17T16:34:34.865Z,94.88
2023-02-17T16:37:04.732Z,95.43
2023-02-17T16:39:31.795Z,95.18
2023-02-17T16:41:58.952Z,95.26
2023-02-17T16:44:26.556Z,96.21
2023-02-17T16:46:55.843Z,95.50
2023-02-17T16:49:32.804Z,96.84
2023-02-17T16:52:02.106Z,96.21
2023-02-17T16:54:29.690Z,97.75
2023-02-17T16:56:58.641Z,97.67
2023-02-17T16:59:26.736Z,98.06
2023-02-17T17:01:54.218Z,99.71
2023-02-17T17:04:22.157Z,99.68
2023-02-17T17:06:51.692Z,99.97
2023-02-17T17:09:21.994Z,99.63
2023-02-17T17:11:50.165Z,99.25
2023-02-17T17:14:18.374Z,98.77
2023-02-17T17:16:58.435Z,98.82
2023-02-17T17:19:25.730Z,99.55
2023-02-17T17:21:53.114Z,99.13
2023-02-17T17:24:20.817Z,100.00
2023-02-17T17:26:50.319Z,100.00
2023-02-17T17:29:19.478Z,100.00
2023-02-17T17:31:47.104Z,100.00
2023-02-17T17:34:14.752Z,100.00
2023-02-17T17:36:44.691Z,100.00
2023-02-17T17:39:16.541Z,100.00
2023-02-17T17:41:44.468Z,100.00
2023-02-17T17:44:11.933Z,100.00
2023-02-17T17:46:39.779Z,100.00
2023-02-17T17:49:10.457Z,100.00
2023-02-17T17:51:39.133Z,100.00
2023-02-17T17:54:07.591Z,100.00
2023-02-17T17:56:39.469Z,100.00
2023-02-17T17:59:07.462Z,100.00
2023-02-17T18:01:34.852Z,100.00
2023-02-17T18:04:02.653Z,100.00
2023-02-17T18:06:35.931Z,100.00
2023-02-17T18:09:06.424Z,100.00
2023-02-17T18:11:35.004Z,100.00
2023-02-17T18:14:08.759Z,100.00
2023-02-17T18:16:37.757Z,100.00
2023-02-17T18:19:07.479Z,100.00
2023-02-17T18:21:35.884Z,100.00
2023-02-17T18:24:03.914Z,100.00
2023-02-17T18:26:31.468Z,100.00
2023-02-17T18:28:59.158Z,100.00
2023-02-17T18:31:29.237Z,100.00
2023-02-17T18:33:57.295Z,100.00
2023-02-17T18:36:27.584Z,100.00
2023-02-17T18:38:55.360Z,100.00
2023-02-17T18:41:25.283Z,100.00
2023-02-17T18:43:52.712Z,100.00
2023-02-17T18:46:20.634Z,100.00
2023-02-17T18:48:48.287Z,100.00
2023-02-17T18:51:19.491Z,100.00
2023-02-17T18:53:46.731Z,100.00
2023-02-17T18:56:19.834Z,100.00
2023-02-17T18:58:47.843Z,100.00
2023-02-17T19:01:21.500Z,100.00
2023-02-17T19:03:48.765Z,100.00
2023-02-17T19:06:18.275Z,100.00
2023-02-17T19:08:47.547Z,100.00
2023-02-17T19:11:16.543Z,100.00
2023-02-17T19:13:44.181Z,100.00
2023-02-17T19:16:15.555Z,100.00
2023-02-17T19:18:43.600Z,100.00
2023-02-17T19:21:11.389Z,100.00
2023-02-17T19:23:39.349Z,100.00
2023-02-17T19:26:09.690Z,100.00
2023-02-17T19:28:38.340Z,100.00
2023-02-17T19:31:07.925Z,100.00
2023-02-17T19:33:35.243Z,100.00
2023-02-17T19:36:10.278Z,100.00
2023-02-17T19:38:37.840Z,100.00
2023-02-17T19:41:07.773Z,100.00
2023-02-17T19:43:35.961Z,100.00
2023-02-17T19:46:05.046Z,100.00
2023-02-17T19:48:33.636Z,100.00
2023-02-17T19:51:06.765Z,100.00
2023-02-17T19:53:35.528Z,100.00
2023-02-17T19:56:12.714Z,100.00
2023-02-17T19:58:45.427Z,100.00
2023-02-17T20:01:21.818Z,100.00
2023-02-17T20:03:51.713Z,100.00
2023-02-17T20:06:25.656Z,100.00
2023-02-17T20:09:00.424Z,100.00
2023-02-17T20:11:30.579Z,100.00
2023-02-17T20:14:01.157Z,100.00
2023-02-17T20:16:30.213Z,100.00
2023-02-17T20:19:02.031Z,100.00
2023-02-17T20:21:32.867Z,100.00
2023-02-17T20:24:00.667Z,100.00
2023-02-17T20:26:34.654Z,100.00
2023-02-17T20:29:03.182Z,100.00
2023-02-17T20:31:31.690Z,100.00
2023-02-17T20:33:59.509Z,100.00
2023-02-17T20:36:31.580Z,100.00
2023-02-17T20:38:58.732Z,100.00
2023-02-17T20:41:26.663Z,100.00
2023-02-17T20:43:54.863Z,100.00
2023-02-17T20:46:25.155Z,100.00
2023-02-17T20:48:55.436Z,100.00
2023-02-17T20:51:24.565Z,100.00
2023-02-17T20:53:56.467Z,100.00
2023-02-17T20:56:24.886Z,100.00
2023-02-17T20:58:53.231Z,100.00
2023-02-17T21:01:20.642Z,100.00
2023-02-17T21:03:48.405Z,100.00
2023-02-17T21:06:30.650Z,100.00
2023-02-17T21:09:00.645Z,100.00
2023-02-17T21:11:29.160Z,100.00
2023-02-17T21:13:56.804Z,100.00
2023-02-17T21:16:27.792Z,100.00
2023-02-17T21:18:55.344Z,100.00
2023-02-17T21:21:23.845Z,100.00
2023-02-17T21:23:51.405Z,100.00
2023-02-17T21:26:19.139Z,100.00
2023-02-17T21:28:47.561Z,100.00
2023-02-17T21:31:15.996Z,100.00
2023-02-17T21:33:43.978Z,100.00
2023-02-17T21:36:14.062Z,100.00
2023-02-17T21:38:41.577Z,100.00
2023-02-17T21:41:11.466Z,100.00
2023-02-17T21:43:58.534Z,100.00
2023-02-17T21:46:31.137Z,100.00
2023-02-17T21:49:02.340Z,100.00
2023-02-17T21:51:32.267Z,100.00
2023-02-17T21:54:00.496Z,100.00
2023-02-17T21:56:27.950Z,100.00
2023-02-17T21:58:56.242Z,100.00
2023-02-17T22:01:26.435Z,100.00
2023-02-17T22:03:55.071Z,100.00
2023-02-17T22:06:28.931Z,100.00
2023-02-17T22:09:01.559Z,100.00
2023-02-17T22:11:30.539Z,100.00
2023-02-17T22:14:04.007Z,100.00
2023-02-17T22:16:34.054Z,100.00
2023-02-17T22:19:02.530Z,100.00
2023-02-17T22:21:30.182Z,100.00
2023-02-17T22:23:59.123Z,100.00
2023-02-17T22:26:28.761Z,100.00
2023-02-17T22:28:56.390Z,100.00
2023-02-17T22:31:26.888Z,100.00
2023-02-17T22:33:57.116Z,100.00
2023-02-17T22:36:25.468Z,100.00
2023-02-17T22:38:54.239Z,100.00
2023-02-17T22:41:24.296Z,100.00
2023-02-17T22:43:52.596Z,100.00
2023-02-17T22:46:21.950Z,100.00
2023-02-17T22:48:50.871Z,100.00
2023-02-17T22:51:21.672Z,100.00
2023-02-17T22:53:49.039Z,100.00
2023-02-17T22:56:17.198Z,100.00
2023-02-17T22:58:44.370Z,100.00
2023-02-17T23:01:17.359Z,100.00
2023-02-17T23:03:46.210Z,100.00
2023-02-17T23:06:25.639Z,100.00
2023-02-17T23:08:53.750Z,100.00
2023-02-17T23:11:45.637Z,100.00
2023-02-17T23:14:14.938Z,100.00
2023-02-17T23:16:43.475Z,100.00
2023-02-17T23:19:14.660Z,100.00
2023-02-17T23:21:52.090Z,100.00
2023-02-17T23:24:21.335Z,100.00
2023-02-17T23:26:49.831Z,100.00
2023-02-17T23:29:17.372Z,100.00
2023-02-17T23:31:46.516Z,100.00
2023-02-17T23:34:16.683Z,100.00
2023-02-17T23:36:45.297Z,100.00
2023-02-17T23:39:13.737Z,100.00
2023-02-17T23:41:41.837Z,100.00
2023-02-17T23:44:11.418Z,100.00
2023-02-17T23:46:39.637Z,100.00
2023-02-17T23:49:07.271Z,100.00
2023-02-17T23:51:34.613Z,100.00
2023-02-17T23:54:02.115Z,100.00
2023-02-17T23:56:32.090Z,100.00
2023-02-17T23:58:59.774Z,100.00
